Time;durP1;ratioP1;P1;durP2;ratioP2;P2;SDS_P1;SDS_P2;PMS_P1;PMS_P2;Temp;Humidity;BMP_temperature;BMP_pressure;BME280_temperature;BME280_humidity;BME280_pressure;Samples;Min_cycle;Max_cycle;Signal;HPM_P1;HPM_P2
2022/09/10 00:01:59;;;;;;;;;;;23.80;57.70;;;;;;6101001;28;20056;-41
2022/09/10 00:05:02;;;;;;;;;;;23.90;57.70;;;;;;6122416;28;19930;-41
2022/09/10 00:08:05;;;;;;;;;;;24.00;57.90;;;;;;6109408;28;19934;-41
2022/09/10 00:11:08;;;;;;;;;;;23.60;57.70;;;;;;6106869;28;20013;-42
2022/09/10 00:14:14;;;;;;;;;;;23.60;57.70;;;;;;6111581;28;20811;-41
2022/09/10 00:17:15;;;;;;;;;;;23.60;57.70;;;;;;6092843;28;19934;-45
2022/09/10 00:20:16;;;;;;;;;;;23.80;58.40;;;;;;6106146;28;20036;-41
2022/09/10 00:23:18;;;;;;;;;;;23.50;57.70;;;;;;6118891;28;20159;-41
2022/09/10 00:26:24;;;;;;;;;;;23.90;57.90;;;;;;6100349;28;19926;-42
2022/09/10 00:29:26;;;;;;;;;;;23.80;57.80;;;;;;6101904;28;19941;-41
2022/09/10 00:32:28;;;;;;;;;;;23.80;57.80;;;;;;6108633;28;20698;-42
2022/09/10 00:35:31;;;;;;;;;;;23.70;57.70;;;;;;6102254;28;19930;-41
2022/09/10 00:38:32;;;;;;;;;;;23.40;57.50;;;;;;6105361;28;20187;-41
2022/09/10 00:41:35;;;;;;;;;;;23.50;57.70;;;;;;6113130;28;19933;-44
2022/09/10 00:44:51;;;;;;;;;;;23.60;57.70;;;;;;6107682;28;19938;-41
2022/09/10 00:47:55;;;;;;;;;;;23.50;57.70;;;;;;6109242;28;19970;-42
2022/09/10 00:50:58;;;;;;;;;;;23.60;57.70;;;;;;6104770;28;20054;-42
2022/09/10 00:53:59;;;;;;;;;;;23.50;57.70;;;;;;6108370;28;19957;-41
2022/09/10 00:57:04;;;;;;;;;;;23.70;57.80;;;;;;6111572;28;19977;-42
2022/09/10 01:00:08;;;;;;;;;;;23.80;57.90;;;;;;6105602;28;20862;-41
2022/09/10 01:03:10;;;;;;;;;;;23.60;57.70;;;;;;6104760;28;19930;-42
2022/09/10 01:06:12;;;;;;;;;;;23.40;57.60;;;;;;6108592;28;19965;-41
2022/09/10 01:09:13;;;;;;;;;;;23.50;57.70;;;;;;6106617;28;20760;-43
2022/09/10 01:12:22;;;;;;;;;;;23.30;57.60;;;;;;6111709;28;21027;-43
2022/09/10 01:15:29;;;;;;;;;;;23.60;57.70;;;;;;6105120;28;19934;-41
2022/09/10 01:18:39;;;;;;;;;;;23.50;57.80;;;;;;6103448;28;19934;-41
2022/09/10 01:21:45;;;;;;;;;;;23.80;57.90;;;;;;6111358;28;20195;-44
2022/09/10 01:24:53;;;;;;;;;;;23.40;57.70;;;;;;6109765;28;20005;-42
2022/09/10 01:27:58;;;;;;;;;;;23.70;57.80;;;;;;6111045;28;20384;-41
2022/09/10 01:31:03;;;;;;;;;;;23.80;57.90;;;;;;6107615;28;19958;-45
2022/09/10 01:34:08;;;;;;;;;;;23.60;57.90;;;;;;6106183;28;20324;-40
2022/09/10 01:37:12;;;;;;;;;;;23.30;57.70;;;;;;6108750;28;19934;-40
2022/09/10 01:40:16;;;;;;;;;;;23.40;57.80;;;;;;6103328;28;20059;-41
2022/09/10 01:43:18;;;;;;;;;;;23.70;57.90;;;;;;6107132;28;20563;-41
2022/09/10 01:46:28;;;;;;;;;;;23.30;57.70;;;;;;6105270;28;20203;-42
2022/09/10 01:49:35;;;;;;;;;;;23.60;57.90;;;;;;6110197;28;19933;-41
2022/09/10 01:52:42;;;;;;;;;;;23.60;57.90;;;;;;6109722;28;20316;-41
2022/09/10 01:55:50;;;;;;;;;;;23.20;57.70;;;;;;6110079;28;20362;-43
2022/09/10 01:58:56;;;;;;;;;;;23.60;57.90;;;;;;6106484;28;20013;-40
2022/09/10 02:02:12;;;;;;;;;;;23.60;57.80;;;;;;6109011;28;20745;-43
2022/09/10 02:05:14;;;;;;;;;;;23.70;57.90;;;;;;6108078;28;19953;-41
2022/09/10 02:08:19;;;;;;;;;;;23.40;57.80;;;;;;6124227;28;19934;-41
2022/09/10 02:11:20;;;;;;;;;;;23.40;57.70;;;;;;6103359;28;20345;-41
2022/09/10 02:14:25;;;;;;;;;;;23.30;57.80;;;;;;6101432;28;20200;-41
2022/09/10 02:17:45;;;;;;;;;;;23.60;57.90;;;;;;6107281;28;19945;-41
2022/09/10 02:20:48;;;;;;;;;;;23.40;57.80;;;;;;6105799;28;20218;-41
2022/09/10 02:23:50;;;;;;;;;;;23.70;57.90;;;;;;6108217;28;19930;-41
2022/09/10 02:26:51;;;;;;;;;;;23.20;57.60;;;;;;6109207;28;20500;-41
2022/09/10 02:29:54;;;;;;;;;;;23.30;57.80;;;;;;6109530;28;20231;-41
2022/09/10 02:32:56;;;;;;;;;;;23.40;57.80;;;;;;6108169;28;19933;-40
2022/09/10 02:35:58;;;;;;;;;;;23.50;57.90;;;;;;6105622;28;19934;-40
2022/09/10 02:39:01;;;;;;;;;;;23.30;57.80;;;;;;6108850;28;20738;-41
2022/09/10 02:42:04;;;;;;;;;;;23.40;57.80;;;;;;6105947;28;20131;-41
2022/09/10 02:45:07;;;;;;;;;;;23.40;57.80;;;;;;6105097;28;19936;-43
2022/09/10 02:48:08;;;;;;;;;;;23.20;57.70;;;;;;6107545;28;20484;-42
2022/09/10 02:51:11;;;;;;;;;;;23.30;57.90;;;;;;6108645;28;20280;-41
2022/09/10 02:54:13;;;;;;;;;;;23.50;57.90;;;;;;6105655;28;20216;-40
2022/09/10 02:57:14;;;;;;;;;;;23.20;57.80;;;;;;6110207;28;19938;-40
2022/09/10 03:00:19;;;;;;;;;;;23.50;58.00;;;;;;6105172;28;20109;-40
2022/09/10 03:03:20;;;;;;;;;;;23.60;58.00;;;;;;6106268;28;19930;-42
2022/09/10 03:06:22;;;;;;;;;;;23.50;58.00;;;;;;6105708;28;20274;-41
2022/09/10 03:09:27;;;;;;;;;;;23.40;57.90;;;;;;6106591;28;20041;-41
2022/09/10 03:12:29;;;;;;;;;;;23.10;57.80;;;;;;6107535;28;20074;-41
2022/09/10 03:15:31;;;;;;;;;;;23.10;57.80;;;;;;6104612;28;20127;-41
2022/09/10 03:18:32;;;;;;;;;;;23.60;58.00;;;;;;6108679;28;19938;-41
2022/09/10 03:21:33;;;;;;;;;;;23.20;57.80;;;;;;6109771;28;19935;-40
2022/09/10 03:24:35;;;;;;;;;;;23.20;57.80;;;;;;6109673;28;19942;-40
2022/09/10 03:27:37;;;;;;;;;;;23.10;57.90;;;;;;6106593;28;20981;-42
2022/09/10 03:30:42;;;;;;;;;;;23.40;58.00;;;;;;6106968;28;20040;-40
2022/09/10 03:33:45;;;;;;;;;;;23.30;57.90;;;;;;6116836;28;20052;-40
2022/09/10 03:36:47;;;;;;;;;;;23.60;58.00;;;;;;6104774;28;20044;-40
2022/09/10 03:39:49;;;;;;;;;;;23.10;57.80;;;;;;6104193;28;20348;-41
2022/09/10 03:42:50;;;;;;;;;;;23.50;58.00;;;;;;6103767;28;20966;-43
2022/09/10 03:45:52;;;;;;;;;;;23.00;57.80;;;;;;6105884;28;19973;-43
2022/09/10 03:48:54;;;;;;;;;;;23.10;57.90;;;;;;6101527;28;19934;-43
2022/09/10 03:51:59;;;;;;;;;;;23.40;58.00;;;;;;6106106;28;19930;-40
2022/09/10 03:55:00;;;;;;;;;;;23.00;57.80;;;;;;6099411;28;19930;-40
2022/09/10 03:58:02;;;;;;;;;;;23.20;57.90;;;;;;6101913;28;19934;-40
2022/09/10 04:01:06;;;;;;;;;;;23.30;58.00;;;;;;6107353;28;20323;-41
2022/09/10 04:04:11;;;;;;;;;;;23.00;57.80;;;;;;6102783;28;20466;-40
2022/09/10 04:07:12;;;;;;;;;;;23.40;58.00;;;;;;6105876;28;19930;-42
2022/09/10 04:10:14;;;;;;;;;;;23.00;57.90;;;;;;6103551;28;20044;-40
2022/09/10 04:13:15;;;;;;;;;;;23.50;58.10;;;;;;6101041;28;19934;-42
2022/09/10 04:16:18;;;;;;;;;;;23.10;57.90;;;;;;6098346;28;19930;-40
2022/09/10 04:19:20;;;;;;;;;;;23.30;58.00;;;;;;6105188;28;20163;-41
2022/09/10 04:22:23;;;;;;;;;;;23.20;57.90;;;;;;6101991;28;19934;-40
2022/09/10 04:25:25;;;;;;;;;;;23.20;57.90;;;;;;6099903;28;19957;-41
2022/09/10 04:28:27;;;;;;;;;;;23.20;57.90;;;;;;6106664;28;19930;-43
2022/09/10 04:31:30;;;;;;;;;;;23.20;58.00;;;;;;6105834;28;20813;-40
2022/09/10 04:34:38;;;;;;;;;;;23.40;58.00;;;;;;6103419;28;20368;-40
2022/09/10 04:37:41;;;;;;;;;;;23.20;58.00;;;;;;6103239;28;20310;-41
2022/09/10 04:40:46;;;;;;;;;;;23.00;57.90;;;;;;6098345;28;20260;-40
2022/09/10 04:43:48;;;;;;;;;;;23.40;58.10;;;;;;6102020;28;19935;-40
2022/09/10 04:46:50;;;;;;;;;;;23.00;57.90;;;;;;6100628;28;19934;-41
2022/09/10 04:49:52;;;;;;;;;;;23.40;58.10;;;;;;6101079;28;20016;-42
2022/09/10 04:52:55;;;;;;;;;;;22.80;57.80;;;;;;6097230;28;19944;-41
2022/09/10 04:55:56;;;;;;;;;;;23.10;58.00;;;;;;6096273;28;20771;-43
2022/09/10 04:58:57;;;;;;;;;;;22.80;57.80;;;;;;6099635;28;20192;-43
2022/09/10 05:02:02;;;;;;;;;;;23.10;58.60;;;;;;6097463;28;20177;-41
2022/09/10 05:05:04;;;;;;;;;;;23.20;58.00;;;;;;6101731;28;20097;-42
2022/09/10 05:08:07;;;;;;;;;;;23.20;58.00;;;;;;6102817;28;20101;-40
2022/09/10 05:11:08;;;;;;;;;;;23.00;58.00;;;;;;6101553;28;20080;-40
2022/09/10 05:14:10;;;;;;;;;;;23.30;58.20;;;;;;6101575;28;20248;-40
2022/09/10 05:17:12;;;;;;;;;;;23.10;58.00;;;;;;6102653;28;20767;-41
2022/09/10 05:20:14;;;;;;;;;;;23.10;58.00;;;;;;6098783;28;20371;-41
2022/09/10 05:23:22;;;;;;;;;;;22.90;57.90;;;;;;6101409;28;19930;-42
2022/09/10 05:26:25;;;;;;;;;;;23.20;58.10;;;;;;6105044;28;20006;-41
2022/09/10 05:29:26;;;;;;;;;;;22.90;57.90;;;;;;6099322;28;19930;-40
2022/09/10 05:32:31;;;;;;;;;;;22.50;57.70;;;;;;6100826;28;19981;-40
2022/09/10 05:35:33;;;;;;;;;;;23.40;58.20;;;;;;6100512;28;20206;-40
2022/09/10 05:38:35;;;;;;;;;;;22.90;57.90;;;;;;6094605;28;19934;-41
2022/09/10 05:41:42;;;;;;;;;;;22.90;58.00;;;;;;6095564;28;20029;-41
2022/09/10 05:44:43;;;;;;;;;;;23.20;58.10;;;;;;6101209;28;19930;-41
2022/09/10 05:47:45;;;;;;;;;;;22.80;58.00;;;;;;6095454;28;20510;-43
2022/09/10 05:50:51;;;;;;;;;;;23.10;58.10;;;;;;6094834;28;20327;-41
2022/09/10 05:53:53;;;;;;;;;;;22.90;58.00;;;;;;6099689;28;20153;-41
2022/09/10 05:56:54;;;;;;;;;;;22.90;58.10;;;;;;6100298;28;19961;-41
2022/09/10 05:59:55;;;;;;;;;;;22.80;57.90;;;;;;6097877;28;19930;-40
2022/09/10 06:03:03;;;;;;;;;;;23.10;58.10;;;;;;6090535;28;20839;-40
2022/09/10 06:06:12;;;;;;;;;;;23.20;58.00;;;;;;6091593;28;20309;-41
2022/09/10 06:09:18;;;;;;;;;;;23.10;58.10;;;;;;6091520;28;19937;-42
2022/09/10 06:12:44;;;;;;;;;;;22.80;57.90;;;;;;6096826;28;20948;-43
2022/09/10 06:15:46;;;;;;;;;;;22.80;57.90;;;;;;6096569;28;19935;-44
2022/09/10 06:18:49;;;;;;;;;;;22.90;57.90;;;;;;6099409;28;20183;-40
2022/09/10 06:21:56;;;;;;;;;;;23.10;57.80;;;;;;6098733;28;20327;-41
2022/09/10 06:24:58;;;;;;;;;;;23.30;58.00;;;;;;6099431;28;20734;-42
2022/09/10 06:28:00;;;;;;;;;;;23.40;57.70;;;;;;6099361;28;19941;-40
2022/09/10 06:31:03;;;;;;;;;;;22.90;57.70;;;;;;6116253;28;20386;-43
2022/09/10 06:34:07;;;;;;;;;;;22.80;57.50;;;;;;6096129;28;19937;-41
2022/09/10 06:37:08;;;;;;;;;;;23.40;57.70;;;;;;6098881;28;19930;-43
2022/09/10 06:40:12;;;;;;;;;;;23.30;57.60;;;;;;6100281;28;20496;-43
2022/09/10 06:43:16;;;;;;;;;;;23.20;57.50;;;;;;6099443;28;20409;-41
2022/09/10 06:46:37;;;;;;;;;;;23.40;57.50;;;;;;6098376;28;19934;-43
2022/09/10 06:50:00;;;;;;;;;;;23.10;57.30;;;;;;6098694;28;21451;-43
2022/09/10 06:53:03;;;;;;;;;;;23.20;57.30;;;;;;6096877;28;20094;-42
2022/09/10 06:56:07;;;;;;;;;;;23.00;57.10;;;;;;6093381;28;20167;-41
2022/09/10 06:59:08;;;;;;;;;;;23.50;57.30;;;;;;6090668;28;19942;-41
2022/09/10 07:02:17;;;;;;;;;;;23.60;57.40;;;;;;6094401;28;20389;-41
2022/09/10 07:05:20;;;;;;;;;;;23.20;57.10;;;;;;6092245;28;20332;-42
2022/09/10 07:08:22;;;;;;;;;;;23.10;57.10;;;;;;6097359;28;20214;-40
2022/09/10 07:11:29;;;;;;;;;;;23.50;57.30;;;;;;6100324;28;20667;-41
2022/09/10 07:14:32;;;;;;;;;;;23.40;57.20;;;;;;6093476;28;19934;-42
2022/09/10 07:17:36;;;;;;;;;;;23.50;57.20;;;;;;6097420;28;19966;-44
2022/09/10 07:20:38;;;;;;;;;;;23.50;57.30;;;;;;6096712;28;20045;-40
2022/09/10 07:23:40;;;;;;;;;;;23.30;57.10;;;;;;6100390;28;19973;-41
2022/09/10 07:26:42;;;;;;;;;;;23.50;57.20;;;;;;6100628;28;20198;-43
2022/09/10 07:29:44;;;;;;;;;;;23.50;57.20;;;;;;6097905;28;20061;-42
2022/09/10 07:32:49;;;;;;;;;;;23.10;57.00;;;;;;6097873;28;20177;-44
2022/09/10 07:35:55;;;;;;;;;;;23.40;57.30;;;;;;6100527;28;19940;-44
2022/09/10 07:38:58;;;;;;;;;;;23.50;57.20;;;;;;6112832;28;19930;-42
2022/09/10 07:42:00;;;;;;;;;;;23.60;57.20;;;;;;6106760;28;19934;-40
2022/09/10 07:45:04;;;;;;;;;;;23.30;57.20;;;;;;6110704;28;20878;-42
2022/09/10 07:48:07;;;;;;;;;;;23.30;57.00;;;;;;6101027;28;20259;-40
2022/09/10 07:51:12;;;;;;;;;;;23.30;57.10;;;;;;6095259;28;20121;-43
2022/09/10 07:54:15;;;;;;;;;;;23.60;57.20;;;;;;6092577;28;20458;-41
2022/09/10 07:57:22;;;;;;;;;;;23.50;57.10;;;;;;6092668;28;20060;-43
2022/09/10 08:00:24;;;;;;;;;;;23.10;57.00;;;;;;6101403;28;20045;-45
2022/09/10 08:03:31;;;;;;;;;;;23.20;56.90;;;;;;6095444;28;19934;-42
2022/09/10 08:06:33;;;;;;;;;;;23.60;57.20;;;;;;6102217;28;19950;-44
2022/09/10 08:09:37;;;;;;;;;;;23.30;57.00;;;;;;6101579;28;19942;-42
2022/09/10 08:12:42;;;;;;;;;;;23.40;57.10;;;;;;6095621;28;20486;-39
2022/09/10 08:15:44;;;;;;;;;;;23.70;57.20;;;;;;6094783;28;20511;-38
2022/09/10 08:18:46;;;;;;;;;;;23.50;57.20;;;;;;6097708;28;20249;-39
2022/09/10 08:21:50;;;;;;;;;;;23.60;57.20;;;;;;6097100;28;20043;-39
2022/09/10 08:25:00;;;;;;;;;;;23.70;57.20;;;;;;6098254;28;20110;-38
2022/09/10 08:28:04;;;;;;;;;;;23.70;57.20;;;;;;6096072;28;19934;-38
2022/09/10 08:31:07;;;;;;;;;;;23.40;57.10;;;;;;6092940;28;19930;-38
2022/09/10 08:34:15;;;;;;;;;;;23.60;57.10;;;;;;6088480;28;20908;-40
2022/09/10 08:37:24;;;;;;;;;;;23.80;57.30;;;;;;6094695;28;19934;-39
2022/09/10 08:40:28;;;;;;;;;;;23.60;57.20;;;;;;6097346;28;20458;-40
2022/09/10 08:43:34;;;;;;;;;;;23.40;57.10;;;;;;6093682;28;20294;-40
2022/09/10 08:46:39;;;;;;;;;;;23.80;57.20;;;;;;6092895;28;20247;-39
2022/09/10 08:49:43;;;;;;;;;;;23.80;57.10;;;;;;6110247;28;19935;-38
2022/09/10 08:52:47;;;;;;;;;;;23.70;57.10;;;;;;6094804;28;19934;-39
2022/09/10 08:55:58;;;;;;;;;;;23.40;56.90;;;;;;6090304;28;19957;-39
2022/09/10 08:59:02;;;;;;;;;;;23.80;57.10;;;;;;6093224;28;20701;-39
2022/09/10 09:02:15;;;;;;;;;;;23.70;57.10;;;;;;6088997;28;20706;-41
2022/09/10 09:05:39;;;;;;;;;;;23.50;56.90;;;;;;6091482;28;20100;-38
2022/09/10 09:08:47;;;;;;;;;;;23.70;57.10;;;;;;6085678;28;20596;-41
2022/09/10 09:11:57;;;;;;;;;;;23.90;57.10;;;;;;6091208;28;20324;-41
2022/09/10 09:15:04;;;;;;;;;;;24.00;57.20;;;;;;6092483;28;20014;-38
2022/09/10 09:18:16;;;;;;;;;;;23.60;56.90;;;;;;6096458;28;20493;-38
2022/09/10 09:21:27;;;;;;;;;;;23.70;56.90;;;;;;6088903;28;21383;-41
2022/09/10 09:24:35;;;;;;;;;;;23.90;57.10;;;;;;6098226;28;19934;-41
2022/09/10 09:27:38;;;;;;;;;;;23.50;56.80;;;;;;6089655;28;20167;-39
2022/09/10 09:30:48;;;;;;;;;;;23.50;56.80;;;;;;6092521;28;20497;-40
2022/09/10 09:33:52;;;;;;;;;;;23.70;56.90;;;;;;6095095;28;20233;-39
2022/09/10 09:36:55;;;;;;;;;;;23.60;56.90;;;;;;6096653;28;19930;-41
2022/09/10 09:40:06;;;;;;;;;;;24.20;57.10;;;;;;6094990;28;20057;-40
2022/09/10 09:43:12;;;;;;;;;;;23.80;56.90;;;;;;6097481;28;20203;-40
2022/09/10 09:46:14;;;;;;;;;;;23.90;57.00;;;;;;6098918;28;19977;-39
2022/09/10 09:49:18;;;;;;;;;;;23.30;56.70;;;;;;6095077;28;20760;-39
2022/09/10 09:52:21;;;;;;;;;;;24.10;57.10;;;;;;6092696;28;20179;-43
2022/09/10 09:55:28;;;;;;;;;;;23.90;57.00;;;;;;6094048;28;19934;-39
2022/09/10 09:58:32;;;;;;;;;;;23.50;56.70;;;;;;6091769;28;19990;-39
2022/09/10 10:01:37;;;;;;;;;;;24.00;56.90;;;;;;6095934;28;20568;-39
2022/09/10 10:04:39;;;;;;;;;;;23.90;56.90;;;;;;6093221;28;20438;-39
2022/09/10 10:07:47;;;;;;;;;;;23.90;56.90;;;;;;6094686;28;20745;-39
2022/09/10 10:10:51;;;;;;;;;;;23.70;56.80;;;;;;6095786;28;20331;-38
2022/09/10 10:13:54;;;;;;;;;;;23.70;56.70;;;;;;6092612;28;20450;-40
2022/09/10 10:16:56;;;;;;;;;;;23.80;56.80;;;;;;6096720;28;19953;-39
2022/09/10 10:20:04;;;;;;;;;;;23.70;56.70;;;;;;6099364;28;20708;-38
2022/09/10 10:23:27;;;;;;;;;;;23.90;56.80;;;;;;6096870;28;20072;-40
2022/09/10 10:26:33;;;;;;;;;;;24.00;56.80;;;;;;6099171;28;19935;-40
2022/09/10 10:29:35;;;;;;;;;;;24.10;56.90;;;;;;6095665;28;20064;-39
2022/09/10 10:32:41;;;;;;;;;;;23.80;56.70;;;;;;6094454;28;19989;-39
2022/09/10 10:35:45;;;;;;;;;;;23.80;56.60;;;;;;6096400;28;19934;-41
2022/09/10 10:38:51;;;;;;;;;;;23.80;56.60;;;;;;6092329;28;20358;-39
2022/09/10 10:42:03;;;;;;;;;;;23.90;56.70;;;;;;6094340;28;20075;-42
2022/09/10 10:45:13;;;;;;;;;;;23.70;56.50;;;;;;6094581;28;20071;-42
2022/09/10 10:48:19;;;;;;;;;;;23.90;56.60;;;;;;6100908;28;19934;-39
2022/09/10 10:51:24;;;;;;;;;;;23.80;56.40;;;;;;6099190;28;19937;-39
2022/09/10 10:54:36;;;;;;;;;;;23.60;56.40;;;;;;6096360;28;20056;-39
2022/09/10 10:57:45;;;;;;;;;;;23.90;56.50;;;;;;6099078;28;20637;-38
2022/09/10 11:00:50;;;;;;;;;;;23.90;56.50;;;;;;6096691;28;21245;-38
2022/09/10 11:03:59;;;;;;;;;;;23.70;56.30;;;;;;6090835;28;21952;-38
2022/09/10 11:07:05;;;;;;;;;;;24.20;56.50;;;;;;6092879;28;20452;-39
2022/09/10 11:10:11;;;;;;;;;;;24.00;56.40;;;;;;6097476;28;19934;-39
2022/09/10 11:13:19;;;;;;;;;;;23.80;56.30;;;;;;6092633;28;20630;-39
2022/09/10 11:16:27;;;;;;;;;;;24.00;56.30;;;;;;6095378;28;20281;-39
2022/09/10 11:19:34;;;;;;;;;;;24.00;56.30;;;;;;6094057;28;20103;-40
2022/09/10 11:22:38;;;;;;;;;;;23.90;56.30;;;;;;6093587;28;20265;-39
2022/09/10 11:25:46;;;;;;;;;;;24.00;56.30;;;;;;6095572;28;19988;-39
2022/09/10 11:28:53;;;;;;;;;;;24.10;56.30;;;;;;6093725;28;20152;-38
2022/09/10 11:31:59;;;;;;;;;;;24.20;56.30;;;;;;6094363;28;20241;-39
2022/09/10 11:35:04;;;;;;;;;;;23.80;56.10;;;;;;6093788;28;20329;-40
2022/09/10 11:38:12;;;;;;;;;;;24.30;56.30;;;;;;6094169;28;20038;-39
2022/09/10 11:41:16;;;;;;;;;;;24.00;56.20;;;;;;6094225;28;20444;-39
2022/09/10 11:44:27;;;;;;;;;;;24.00;56.10;;;;;;6095956;28;20083;-39
2022/09/10 11:47:30;;;;;;;;;;;23.90;56.10;;;;;;6091174;28;19930;-40
2022/09/10 11:50:37;;;;;;;;;;;24.60;56.40;;;;;;6095785;28;20332;-39
2022/09/10 11:53:39;;;;;;;;;;;24.20;56.10;;;;;;6091701;28;20167;-39
2022/09/10 11:56:51;;;;;;;;;;;24.30;56.20;;;;;;6093721;28;19931;-39
2022/09/10 12:00:02;;;;;;;;;;;24.00;56.00;;;;;;6091628;28;20792;-39
2022/09/10 12:03:19;;;;;;;;;;;24.50;56.20;;;;;;6086470;28;20197;-39
2022/09/10 12:06:22;;;;;;;;;;;24.00;55.90;;;;;;6093686;28;19937;-39
2022/09/10 12:09:28;;;;;;;;;;;24.10;56.00;;;;;;6094225;28;20117;-38
2022/09/10 12:12:33;;;;;;;;;;;24.10;56.00;;;;;;6093327;28;19944;-39
2022/09/10 12:15:39;;;;;;;;;;;24.40;56.10;;;;;;6093996;28;20079;-39
2022/09/10 12:18:43;;;;;;;;;;;24.40;56.10;;;;;;6094082;28;19960;-39
2022/09/10 12:21:48;;;;;;;;;;;24.20;56.10;;;;;;6096579;28;20492;-40
2022/09/10 12:24:51;;;;;;;;;;;24.40;56.10;;;;;;6087697;28;20466;-39
2022/09/10 12:27:55;;;;;;;;;;;24.40;56.10;;;;;;6094890;28;20112;-39
2022/09/10 12:30:59;;;;;;;;;;;24.00;55.90;;;;;;6090915;28;20287;-39
2022/09/10 12:34:08;;;;;;;;;;;24.30;56.10;;;;;;6086148;28;19930;-38
2022/09/10 12:37:19;;;;;;;;;;;24.20;55.90;;;;;;6088613;28;20341;-41
2022/09/10 12:40:34;;;;;;;;;;;24.40;56.10;;;;;;6087545;28;19940;-39
2022/09/10 12:43:51;;;;;;;;;;;24.10;55.90;;;;;;6089098;28;20329;-38
2022/09/10 12:47:01;;;;;;;;;;;24.20;56.00;;;;;;6083580;28;20819;-41
2022/09/10 12:50:05;;;;;;;;;;;24.30;56.00;;;;;;6086626;28;19930;-41
2022/09/10 12:53:20;;;;;;;;;;;24.20;55.90;;;;;;6089664;28;20748;-39
2022/09/10 12:56:31;;;;;;;;;;;24.30;56.00;;;;;;6091595;28;20833;-40
2022/09/10 12:59:51;;;;;;;;;;;24.20;55.90;;;;;;6087293;28;20200;-39
2022/09/10 13:02:53;;;;;;;;;;;24.60;56.10;;;;;;6088965;28;20056;-40
2022/09/10 13:05:57;;;;;;;;;;;24.30;55.90;;;;;;6086383;28;19929;-40
2022/09/10 13:08:58;;;;;;;;;;;24.10;55.90;;;;;;6090918;28;20076;-41
2022/09/10 13:12:02;;;;;;;;;;;24.30;56.00;;;;;;6093118;28;20082;-38
2022/09/10 13:15:04;;;;;;;;;;;24.50;56.00;;;;;;6089135;28;19977;-41
2022/09/10 13:18:25;;;;;;;;;;;24.20;55.90;;;;;;6095422;28;19986;-41
2022/09/10 13:21:41;;;;;;;;;;;24.10;55.80;;;;;;6097366;28;20002;-40
2022/09/10 13:24:54;;;;;;;;;;;24.40;55.90;;;;;;6090236;28;20496;-39
2022/09/10 13:27:56;;;;;;;;;;;24.20;55.90;;;;;;6086980;28;20208;-38
2022/09/10 13:31:00;;;;;;;;;;;24.10;55.70;;;;;;6087483;28;20300;-39
2022/09/10 13:34:16;;;;;;;;;;;24.00;55.70;;;;;;6081654;28;20472;-39
2022/09/10 13:37:34;;;;;;;;;;;24.60;55.90;;;;;;6084518;28;19934;-39
2022/09/10 13:40:50;;;;;;;;;;;24.40;55.80;;;;;;6103973;28;19929;-39
2022/09/10 13:44:01;;;;;;;;;;;24.20;55.70;;;;;;6089478;28;19934;-40
2022/09/10 13:47:08;;;;;;;;;;;24.20;55.70;;;;;;6090980;28;19930;-40
2022/09/10 13:50:13;;;;;;;;;;;24.40;55.70;;;;;;6091815;28;20915;-39
2022/09/10 13:53:16;;;;;;;;;;;24.60;55.80;;;;;;6092180;28;19961;-39
2022/09/10 13:56:20;;;;;;;;;;;24.20;55.60;;;;;;6092109;28;20386;-41
2022/09/10 13:59:29;;;;;;;;;;;24.60;56.40;;;;;;6088313;28;19934;-40
2022/09/10 14:02:44;;;;;;;;;;;24.40;55.70;;;;;;6090066;28;20616;-39
2022/09/10 14:05:47;;;;;;;;;;;24.50;56.30;;;;;;6092771;28;20140;-39
2022/09/10 14:08:50;;;;;;;;;;;24.50;55.70;;;;;;6089789;28;20134;-39
2022/09/10 14:11:52;;;;;;;;;;;24.20;55.50;;;;;;6090868;28;20214;-39
2022/09/10 14:14:57;;;;;;;;;;;24.50;55.60;;;;;;6091841;28;20053;-39
2022/09/10 14:17:59;;;;;;;;;;;24.50;55.60;;;;;;6092398;28;20051;-40
2022/09/10 14:21:01;;;;;;;;;;;24.30;55.50;;;;;;6093027;28;20412;-39
2022/09/10 14:24:02;;;;;;;;;;;24.20;55.40;;;;;;6087863;28;19930;-40
2022/09/10 14:27:06;;;;;;;;;;;24.20;55.40;;;;;;6092626;28;20285;-40
2022/09/10 14:30:22;;;;;;;;;;;24.60;55.60;;;;;;6092584;28;19934;-38
2022/09/10 14:33:30;;;;;;;;;;;24.70;55.60;;;;;;6091472;28;19944;-38
2022/09/10 14:36:32;;;;;;;;;;;24.70;55.60;;;;;;6093095;28;20325;-39
2022/09/10 14:39:34;;;;;;;;;;;24.80;55.60;;;;;;6094992;28;20361;-39
2022/09/10 14:42:39;;;;;;;;;;;24.20;55.30;;;;;;6094565;28;21310;-40
2022/09/10 14:45:42;;;;;;;;;;;24.30;55.30;;;;;;6089813;28;20048;-39
2022/09/10 14:48:58;;;;;;;;;;;24.50;55.40;;;;;;6088436;28;20076;-41
2022/09/10 14:52:02;;;;;;;;;;;24.60;55.40;;;;;;6088844;28;20435;-40
2022/09/10 14:55:04;;;;;;;;;;;24.80;55.40;;;;;;6088882;28;20011;-38
2022/09/10 14:58:05;;;;;;;;;;;24.80;55.50;;;;;;6090784;28;19930;-38
2022/09/10 15:01:08;;;;;;;;;;;24.70;55.50;;;;;;6089623;28;20040;-38
2022/09/10 15:04:12;;;;;;;;;;;24.70;55.40;;;;;;6085677;28;19926;-38
2022/09/10 15:07:14;;;;;;;;;;;24.50;55.20;;;;;;6092632;28;20627;-39
2022/09/10 15:10:16;;;;;;;;;;;24.50;55.20;;;;;;6088444;28;19934;-39
2022/09/10 15:13:17;;;;;;;;;;;24.80;55.50;;;;;;6087575;28;19944;-39
2022/09/10 15:16:19;;;;;;;;;;;24.70;55.30;;;;;;6089501;28;20072;-39
2022/09/10 15:19:20;;;;;;;;;;;24.70;55.40;;;;;;6088659;28;20718;-40
2022/09/10 15:22:24;;;;;;;;;;;24.90;55.40;;;;;;6082334;28;20041;-39
2022/09/10 15:25:27;;;;;;;;;;;24.50;55.20;;;;;;6091821;28;20305;-39
2022/09/10 15:28:29;;;;;;;;;;;24.60;55.20;;;;;;6090663;28;19934;-39
2022/09/10 15:31:30;;;;;;;;;;;24.80;55.40;;;;;;6091742;28;20280;-39
2022/09/10 15:34:33;;;;;;;;;;;24.50;55.60;;;;;;6091718;28;20329;-38
2022/09/10 15:37:36;;;;;;;;;;;25.00;55.40;;;;;;6087688;28;20033;-39
2022/09/10 15:40:37;;;;;;;;;;;24.60;55.20;;;;;;6087824;28;20041;-39
2022/09/10 15:43:41;;;;;;;;;;;24.50;55.10;;;;;;6107332;28;20179;-39
2022/09/10 15:46:44;;;;;;;;;;;24.70;55.20;;;;;;6091570;28;20512;-39
2022/09/10 15:49:45;;;;;;;;;;;25.00;55.30;;;;;;6085422;28;20016;-39
2022/09/10 15:52:48;;;;;;;;;;;24.50;55.10;;;;;;6093922;28;20031;-40
2022/09/10 15:55:49;;;;;;;;;;;24.80;55.30;;;;;;6090325;28;20572;-41
2022/09/10 15:58:53;;;;;;;;;;;24.70;55.10;;;;;;6087296;28;20377;-39
2022/09/10 16:01:55;;;;;;;;;;;24.80;55.20;;;;;;6087817;28;20078;-38
2022/09/10 16:04:56;;;;;;;;;;;24.60;55.10;;;;;;6087225;28;20077;-39
2022/09/10 16:07:58;;;;;;;;;;;24.50;55.10;;;;;;6094092;28;19933;-38
2022/09/10 16:11:05;;;;;;;;;;;24.90;55.30;;;;;;6089106;28;20364;-41
2022/09/10 16:14:10;;;;;;;;;;;24.70;55.10;;;;;;6091231;28;20041;-38
2022/09/10 16:17:11;;;;;;;;;;;24.70;55.10;;;;;;6088718;28;20612;-39
2022/09/10 16:20:12;;;;;;;;;;;24.80;55.10;;;;;;6088432;28;20083;-39
2022/09/10 16:23:16;;;;;;;;;;;24.50;54.90;;;;;;6089169;28;19934;-39
2022/09/10 16:26:19;;;;;;;;;;;24.50;55.00;;;;;;6091320;28;19942;-38
2022/09/10 16:29:20;;;;;;;;;;;24.90;55.10;;;;;;6087248;28;20767;-39
2022/09/10 16:32:22;;;;;;;;;;;24.60;54.90;;;;;;6089777;28;20664;-41
2022/09/10 16:35:25;;;;;;;;;;;24.70;55.00;;;;;;6091027;28;20452;-39
2022/09/10 16:38:27;;;;;;;;;;;24.70;54.90;;;;;;6088977;28;20452;-40
2022/09/10 16:41:28;;;;;;;;;;;24.80;55.00;;;;;;6088846;28;20098;-38
2022/09/10 16:44:31;;;;;;;;;;;25.00;55.10;;;;;;6084082;28;19934;-40
2022/09/10 16:47:32;;;;;;;;;;;24.90;55.00;;;;;;6089335;28;19935;-40
2022/09/10 16:50:33;;;;;;;;;;;24.50;54.70;;;;;;6088490;28;20414;-39
2022/09/10 16:53:37;;;;;;;;;;;24.50;54.70;;;;;;6088976;28;20438;-39
2022/09/10 16:56:40;;;;;;;;;;;24.60;54.80;;;;;;6090374;28;20185;-39
2022/09/10 16:59:42;;;;;;;;;;;24.70;54.90;;;;;;6092553;28;20912;-39
2022/09/10 17:02:43;;;;;;;;;;;24.50;54.80;;;;;;6091286;28;20587;-39
2022/09/10 17:05:45;;;;;;;;;;;24.80;54.90;;;;;;6091815;28;20048;-41
2022/09/10 17:08:47;;;;;;;;;;;24.90;54.90;;;;;;6089537;28;20049;-40
2022/09/10 17:11:49;;;;;;;;;;;24.60;54.80;;;;;;6089047;28;20257;-38
2022/09/10 17:14:51;;;;;;;;;;;24.40;54.70;;;;;;6086865;28;20259;-40
2022/09/10 17:17:53;;;;;;;;;;;24.90;54.40;;;;;;6090003;28;20183;-38
2022/09/10 17:20:54;;;;;;;;;;;24.70;54.80;;;;;;6086022;28;20124;-38
2022/09/10 17:24:00;;;;;;;;;;;24.70;54.80;;;;;;6091265;28;19989;-41
2022/09/10 17:27:02;;;;;;;;;;;24.50;54.60;;;;;;6092511;28;20052;-42
2022/09/10 17:30:05;;;;;;;;;;;24.70;54.70;;;;;;6088973;28;20108;-40
2022/09/10 17:33:06;;;;;;;;;;;24.70;54.70;;;;;;6090773;28;20210;-38
2022/09/10 17:36:08;;;;;;;;;;;24.90;54.80;;;;;;6092158;28;20253;-38
2022/09/10 17:39:10;;;;;;;;;;;24.50;54.50;;;;;;6091987;28;20497;-39
2022/09/10 17:42:11;;;;;;;;;;;24.80;54.70;;;;;;6089113;28;19984;-40
2022/09/10 17:45:13;;;;;;;;;;;24.60;54.60;;;;;;6086324;28;20238;-38
2022/09/10 17:48:14;;;;;;;;;;;24.70;54.60;;;;;;6092371;28;20036;-39
2022/09/10 17:51:16;;;;;;;;;;;24.70;54.60;;;;;;6092491;28;20208;-38
2022/09/10 17:54:18;;;;;;;;;;;24.30;54.40;;;;;;6091281;28;20119;-39